Blawenburg, New Jersey
Current Conditions -  °F | °C
As of 8:22 AM on Thursday 23 Oct 2014 (Local Time) from KTTN Reporting Station
Light Rain Light Rain  
Wind Chill: 10°   Ceiling: 3300
Heat Index: 10°   Visibility: 8mi
Dew Point:   Wind: 13mph
Humidity: 86%   Direction: 330°NNW
Pressure: 29.74"   Gusts: NA
Location:  40.41°N, 74.7°W
Report Text: KTTN 231222Z 33011KT 8SM -RA SCT021 OVC033 10/08 A2974 RMK AO2 RAB1159 P0000 T01000078
Loading
Personal Weather Stations






























Interactive Weather Map
Tropical Storm Tracking
New forecast layout! Learn more

10-Day Weather Forecast

Advertisements
Track Severe Weather on mobile